Main page
METAR-TAF:

METAR-TAF

Airports :

McCarran International Airport

Las Vegas, Nevada, United States

latitude: 36-04-44N, longitude: 115-09-19W, elevation: 663 m

Current weather observation

The report was made 44 minutes ago, at 02:56 UTC
Wind 3 kt from the Northeast
Temperature 13°C
Humidity 54%
Pressure 1023 hPa
Visibility: 16.1 km
Clear sky

METAR: KLAS 230256Z 04003KT 10SM CLR 13/04 A3020 RMK AO2 SLP226 T01280039 53012

Time: 19:40 (03:40 UTC)

Forecast

The report was made 49 minutes ago, at 02:51 UTC
Forecast valid from 23 at 03 UTC to 24 at 06 UTC
Wind 5 kt from variable directions
Visibility: 10 km
Few clouds at a height of 6000 ft
From 23 at 1900 UTC
Wind 7 kt from the Northeast
Visibility: 10 km
Few clouds at a height of 6000 ft
From 24 at 0300 UTC
Wind 5 kt from the Southwest
Visibility: 10 km
Clear sky

TAF: KLAS 230251Z 2303/2406 VRB05KT P6SM FEW060 FM231900 04007KT P6SM FEW060 FM240300 22005KT P6SM SKC

Weather observations and forecasts of more than 4000 airports (METAR and TAF reports).

The available stations are represented by yellow and red dots on the map.

Hover mouse over dot to see the name of the station.

Then click to see weather observations and forecasts.

To change the map : click on the green buttons with a black cross to zoom in, on the green button with a dash to zoom out, or on the green arrows for adjacent maps.


METAR-TAF: